sensor_id;sensor_type;location;lat;lon;timestamp;pressure;altitude;pressure_sealevel;temperature;humidity
33496;BME280;19836;55.812;37.560;2022-08-25T00:01:24;100654.81;;;22.60;46.76
33496;BME280;19836;55.812;37.560;2022-08-25T00:03:50;100651.28;;;22.58;46.82
33496;BME280;19836;55.812;37.560;2022-08-25T00:06:17;100647.22;;;22.51;46.83
33496;BME280;19836;55.812;37.560;2022-08-25T00:08:44;100648.38;;;22.47;46.91
33496;BME280;19836;55.812;37.560;2022-08-25T00:11:22;100646.78;;;22.43;47.11
33496;BME280;19836;55.812;37.560;2022-08-25T00:13:57;100643.28;;;22.41;47.25
33496;BME280;19836;55.812;37.560;2022-08-25T00:16:25;100642.41;;;22.41;47.36
33496;BME280;19836;55.812;37.560;2022-08-25T00:18:54;100642.78;;;22.35;47.51
33496;BME280;19836;55.812;37.560;2022-08-25T00:21:21;100643.88;;;22.32;47.46
33496;BME280;19836;55.812;37.560;2022-08-25T00:23:47;100645.03;;;22.28;47.62
33496;BME280;19836;55.812;37.560;2022-08-25T00:26:15;100643.19;;;22.29;48.01
33496;BME280;19836;55.812;37.560;2022-08-25T00:28:43;100644.09;;;22.29;47.83
33496;BME280;19836;55.812;37.560;2022-08-25T00:31:15;100638.81;;;22.26;47.89
33496;BME280;19836;55.812;37.560;2022-08-25T00:33:43;100644.44;;;22.23;48.25
33496;BME280;19836;55.812;37.560;2022-08-25T00:36:09;100643.84;;;22.18;48.44
33496;BME280;19836;55.812;37.560;2022-08-25T00:38:41;100642.19;;;22.16;48.64
33496;BME280;19836;55.812;37.560;2022-08-25T00:41:09;100655.09;;;22.14;48.47
33496;BME280;19836;55.812;37.560;2022-08-25T00:43:56;100647.97;;;22.11;48.46
33496;BME280;19836;55.812;37.560;2022-08-25T00:46:28;100648.25;;;22.07;48.68
33496;BME280;19836;55.812;37.560;2022-08-25T00:49:42;100651.84;;;22.07;48.99
33496;BME280;19836;55.812;37.560;2022-08-25T00:54:44;100645.03;;;22.00;48.94
33496;BME280;19836;55.812;37.560;2022-08-25T00:57:15;100644.22;;;21.98;49.23
33496;BME280;19836;55.812;37.560;2022-08-25T00:59:42;100645.28;;;21.96;49.03
33496;BME280;19836;55.812;37.560;2022-08-25T01:02:10;100648.25;;;21.93;49.14
33496;BME280;19836;55.812;37.560;2022-08-25T01:04:36;100641.97;;;21.91;49.30
33496;BME280;19836;55.812;37.560;2022-08-25T01:07:03;100645.91;;;21.87;49.40
33496;BME280;19836;55.812;37.560;2022-08-25T01:09:30;100643.25;;;21.85;49.52
33496;BME280;19836;55.812;37.560;2022-08-25T01:11:59;100645.09;;;21.85;49.46
33496;BME280;19836;55.812;37.560;2022-08-25T01:14:26;100647.72;;;21.86;49.75
33496;BME280;19836;55.812;37.560;2022-08-25T01:16:52;100646.00;;;21.85;49.56
33496;BME280;19836;55.812;37.560;2022-08-25T01:19:19;100641.50;;;21.84;49.64
33496;BME280;19836;55.812;37.560;2022-08-25T01:21:48;100636.22;;;21.81;49.71
33496;BME280;19836;55.812;37.560;2022-08-25T01:24:31;100630.75;;;21.81;49.93
33496;BME280;19836;55.812;37.560;2022-08-25T01:26:58;100635.25;;;21.82;49.86
33496;BME280;19836;55.812;37.560;2022-08-25T01:29:24;100638.34;;;21.76;49.82
33496;BME280;19836;55.812;37.560;2022-08-25T01:31:57;100635.81;;;21.73;49.96
33496;BME280;19836;55.812;37.560;2022-08-25T01:34:26;100637.59;;;21.74;50.06
33496;BME280;19836;55.812;37.560;2022-08-25T01:36:53;100645.78;;;21.74;50.28
33496;BME280;19836;55.812;37.560;2022-08-25T01:39:20;100636.78;;;21.72;49.97
33496;BME280;19836;55.812;37.560;2022-08-25T01:44:44;100639.50;;;21.72;50.29
33496;BME280;19836;55.812;37.560;2022-08-25T01:47:11;100643.31;;;21.70;50.40
33496;BME280;19836;55.812;37.560;2022-08-25T01:49:38;100630.78;;;21.66;50.47
33496;BME280;19836;55.812;37.560;2022-08-25T01:52:18;100638.97;;;21.66;50.78
33496;BME280;19836;55.812;37.560;2022-08-25T01:54:44;100638.09;;;21.65;50.59
33496;BME280;19836;55.812;37.560;2022-08-25T01:57:10;100636.44;;;21.63;50.92
33496;BME280;19836;55.812;37.560;2022-08-25T01:59:36;100641.00;;;21.62;51.08
33496;BME280;19836;55.812;37.560;2022-08-25T02:02:03;100642.97;;;21.60;50.94
33496;BME280;19836;55.812;37.560;2022-08-25T02:04:29;100640.25;;;21.60;50.92
33496;BME280;19836;55.812;37.560;2022-08-25T02:06:59;100652.13;;;21.59;51.08
33496;BME280;19836;55.812;37.560;2022-08-25T02:09:25;100637.78;;;21.56;51.38
33496;BME280;19836;55.812;37.560;2022-08-25T02:11:50;100645.19;;;21.54;51.28
33496;BME280;19836;55.812;37.560;2022-08-25T02:14:17;100652.47;;;21.53;51.30
33496;BME280;19836;55.812;37.560;2022-08-25T02:16:47;100646.16;;;21.53;51.44
33496;BME280;19836;55.812;37.560;2022-08-25T02:19:14;100649.94;;;21.50;51.39
33496;BME280;19836;55.812;37.560;2022-08-25T02:21:41;100653.81;;;21.46;51.48
33496;BME280;19836;55.812;37.560;2022-08-25T02:24:07;100646.72;;;21.44;51.71
33496;BME280;19836;55.812;37.560;2022-08-25T02:26:34;100654.00;;;21.43;51.83
33496;BME280;19836;55.812;37.560;2022-08-25T02:29:01;100654.19;;;21.40;52.05
33496;BME280;19836;55.812;37.560;2022-08-25T02:31:27;100648.53;;;21.43;51.80
33496;BME280;19836;55.812;37.560;2022-08-25T02:33:53;100645.72;;;21.45;52.11
33496;BME280;19836;55.812;37.560;2022-08-25T02:36:20;100651.09;;;21.46;52.22
33496;BME280;19836;55.812;37.560;2022-08-25T02:38:46;100651.19;;;21.45;52.11
33496;BME280;19836;55.812;37.560;2022-08-25T02:41:21;100645.81;;;21.43;52.50
33496;BME280;19836;55.812;37.560;2022-08-25T02:43:49;100648.66;;;21.42;52.26
33496;BME280;19836;55.812;37.560;2022-08-25T02:46:17;100648.66;;;21.42;52.65
33496;BME280;19836;55.812;37.560;2022-08-25T02:48:45;100642.31;;;21.41;52.79
33496;BME280;19836;55.812;37.560;2022-08-25T02:51:11;100646.03;;;21.40;52.99
33496;BME280;19836;55.812;37.560;2022-08-25T02:53:39;100640.56;;;21.40;53.04
33496;BME280;19836;55.812;37.560;2022-08-25T02:56:09;100642.50;;;21.38;53.25
33496;BME280;19836;55.812;37.560;2022-08-25T02:58:36;100641.81;;;21.35;53.27
33496;BME280;19836;55.812;37.560;2022-08-25T03:01:03;100645.59;;;21.32;53.30
33496;BME280;19836;55.812;37.560;2022-08-25T03:03:29;100644.81;;;21.30;53.64
33496;BME280;19836;55.812;37.560;2022-08-25T03:05:55;100643.06;;;21.29;53.38
33496;BME280;19836;55.812;37.560;2022-08-25T03:08:23;100643.16;;;21.28;53.56
33496;BME280;19836;55.812;37.560;2022-08-25T03:10:49;100644.97;;;21.27;53.63
33496;BME280;19836;55.812;37.560;2022-08-25T03:13:15;100642.16;;;21.29;53.80
33496;BME280;19836;55.812;37.560;2022-08-25T03:15:42;100639.34;;;21.30;53.80
33496;BME280;19836;55.812;37.560;2022-08-25T03:18:09;100649.28;;;21.31;53.77
33496;BME280;19836;55.812;37.560;2022-08-25T03:20:37;100644.44;;;21.36;54.16
33496;BME280;19836;55.812;37.560;2022-08-25T03:23:05;100637.03;;;21.38;54.07
33496;BME280;19836;55.812;37.560;2022-08-25T03:25:31;100636.94;;;21.40;54.14
33496;BME280;19836;55.812;37.560;2022-08-25T03:28:16;100645.03;;;21.41;53.92
33496;BME280;19836;55.812;37.560;2022-08-25T03:30:42;100644.97;;;21.43;54.02
33496;BME280;19836;55.812;37.560;2022-08-25T03:33:09;100636.56;;;21.46;54.22
33496;BME280;19836;55.812;37.560;2022-08-25T03:35:35;100635.41;;;21.50;54.07
33496;BME280;19836;55.812;37.560;2022-08-25T03:38:03;100636.22;;;21.52;54.22
33496;BME280;19836;55.812;37.560;2022-08-25T03:40:29;100632.22;;;21.57;54.15
33496;BME280;19836;55.812;37.560;2022-08-25T03:42:55;100624.66;;;21.62;54.01
33496;BME280;19836;55.812;37.560;2022-08-25T03:45:22;100626.09;;;21.69;54.35
33496;BME280;19836;55.812;37.560;2022-08-25T03:47:49;100633.06;;;21.73;54.14
33496;BME280;19836;55.812;37.560;2022-08-25T03:50:17;100625.47;;;21.78;54.25
33496;BME280;19836;55.812;37.560;2022-08-25T03:52:44;100628.81;;;21.83;54.06
33496;BME280;19836;55.812;37.560;2022-08-25T03:55:12;100627.47;;;21.90;54.38
33496;BME280;19836;55.812;37.560;2022-08-25T03:57:39;100631.38;;;22.00;54.39
33496;BME280;19836;55.812;37.560;2022-08-25T04:00:07;100625.53;;;22.06;54.44
33496;BME280;19836;55.812;37.560;2022-08-25T04:02:37;100619.59;;;22.14;54.14
33496;BME280;19836;55.812;37.560;2022-08-25T04:05:04;100616.38;;;22.21;54.29
33496;BME280;19836;55.812;37.560;2022-08-25T04:07:30;100615.88;;;22.29;53.96
33496;BME280;19836;55.812;37.560;2022-08-25T04:09:56;100618.31;;;22.33;54.24
33496;BME280;19836;55.812;37.560;2022-08-25T04:12:22;100622.59;;;22.37;54.47
33496;BME280;19836;55.812;37.560;2022-08-25T04:14:49;100619.47;;;22.43;54.41
33496;BME280;19836;55.812;37.560;2022-08-25T04:17:15;100620.09;;;22.48;54.41
33496;BME280;19836;55.812;37.560;2022-08-25T04:19:41;100616.09;;;22.54;54.35
33496;BME280;19836;55.812;37.560;2022-08-25T04:22:06;100614.81;;;22.59;54.38
33496;BME280;19836;55.812;37.560;2022-08-25T04:24:32;100608.84;;;22.67;54.04
33496;BME280;19836;55.812;37.560;2022-08-25T04:26:58;100599.34;;;22.72;54.08
33496;BME280;19836;55.812;37.560;2022-08-25T04:29:24;100604.41;;;22.78;54.06
33496;BME280;19836;55.812;37.560;2022-08-25T04:31:52;100600.31;;;22.85;54.01
33496;BME280;19836;55.812;37.560;2022-08-25T04:34:21;100606.25;;;22.92;53.84
33496;BME280;19836;55.812;37.560;2022-08-25T04:36:47;100598.47;;;22.98;53.68
33496;BME280;19836;55.812;37.560;2022-08-25T04:39:16;100598.84;;;23.06;53.45
33496;BME280;19836;55.812;37.560;2022-08-25T04:41:45;100603.91;;;23.12;53.56
33496;BME280;19836;55.812;37.560;2022-08-25T04:44:11;100607.03;;;23.20;53.47
33496;BME280;19836;55.812;37.560;2022-08-25T04:46:37;100606.41;;;23.29;53.40
33496;BME280;19836;55.812;37.560;2022-08-25T04:49:04;100605.78;;;23.38;53.12
33496;BME280;19836;55.812;37.560;2022-08-25T04:51:34;100603.41;;;23.46;52.86
33496;BME280;19836;55.812;37.560;2022-08-25T04:54:07;100604.50;;;23.56;52.75
33496;BME280;19836;55.812;37.560;2022-08-25T04:56:34;100605.63;;;23.66;52.73
33496;BME280;19836;55.812;37.560;2022-08-25T04:59:08;100600.38;;;23.76;52.49
33496;BME280;19836;55.812;37.560;2022-08-25T05:01:35;100598.63;;;23.87;52.36
33496;BME280;19836;55.812;37.560;2022-08-25T05:04:04;100591.66;;;23.96;52.10
33496;BME280;19836;55.812;37.560;2022-08-25T05:06:30;100599.97;;;24.07;52.04
33496;BME280;19836;55.812;37.560;2022-08-25T05:08:57;100596.38;;;24.19;51.01
33496;BME280;19836;55.812;37.560;2022-08-25T05:11:24;100591.31;;;24.38;50.45
33496;BME280;19836;55.812;37.560;2022-08-25T05:13:52;100596.75;;;24.50;50.48
33496;BME280;19836;55.812;37.560;2022-08-25T05:16:21;100596.78;;;24.63;49.70
33496;BME280;19836;55.812;37.560;2022-08-25T05:18:48;100592.88;;;24.78;48.51
33496;BME280;19836;55.812;37.560;2022-08-25T05:21:17;100586.09;;;24.94;47.81
33496;BME280;19836;55.812;37.560;2022-08-25T05:23:44;100587.69;;;25.09;46.96
33496;BME280;19836;55.812;37.560;2022-08-25T05:26:19;100586.66;;;25.23;45.72
33496;BME280;19836;55.812;37.560;2022-08-25T05:28:47;100589.09;;;25.38;44.85
33496;BME280;19836;55.812;37.560;2022-08-25T05:31:14;100584.94;;;25.56;44.08
33496;BME280;19836;55.812;37.560;2022-08-25T05:33:40;100582.72;;;25.72;44.12
33496;BME280;19836;55.812;37.560;2022-08-25T05:36:08;100589.47;;;25.79;44.27
33496;BME280;19836;55.812;37.560;2022-08-25T05:38:35;100584.00;;;25.90;43.24
33496;BME280;19836;55.812;37.560;2022-08-25T05:41:07;100584.31;;;25.98;42.82
33496;BME280;19836;55.812;37.560;2022-08-25T05:43:36;100584.19;;;26.11;42.33
33496;BME280;19836;55.812;37.560;2022-08-25T05:46:03;100588.47;;;26.26;41.85
33496;BME280;19836;55.812;37.560;2022-08-25T05:48:29;100583.34;;;26.32;41.85
33496;BME280;19836;55.812;37.560;2022-08-25T05:50:58;100582.97;;;26.37;41.97
33496;BME280;19836;55.812;37.560;2022-08-25T05:53:25;100580.59;;;26.43;41.84
33496;BME280;19836;55.812;37.560;2022-08-25T05:55:54;100571.47;;;26.54;41.20
33496;BME280;19836;55.812;37.560;2022-08-25T05:58:22;100579.47;;;26.68;40.96
33496;BME280;19836;55.812;37.560;2022-08-25T06:00:49;100568.31;;;26.80;40.60
33496;BME280;19836;55.812;37.560;2022-08-25T06:03:16;100571.31;;;26.88;40.28
33496;BME280;19836;55.812;37.560;2022-08-25T06:05:42;100571.91;;;26.92;40.05
33496;BME280;19836;55.812;37.560;2022-08-25T06:08:09;100574.13;;;26.98;39.81
33496;BME280;19836;55.812;37.560;2022-08-25T06:10:36;100576.88;;;27.09;39.55
33496;BME280;19836;55.812;37.560;2022-08-25T06:13:02;100569.75;;;27.17;39.24
33496;BME280;19836;55.812;37.560;2022-08-25T06:15:28;100573.19;;;27.30;38.49
33496;BME280;19836;55.812;37.560;2022-08-25T06:17:55;100568.63;;;27.40;38.75
33496;BME280;19836;55.812;37.560;2022-08-25T06:20:25;100581.38;;;27.52;38.63
33496;BME280;19836;55.812;37.560;2022-08-25T06:22:52;100579.81;;;27.59;38.37
33496;BME280;19836;55.812;37.560;2022-08-25T06:25:20;100570.88;;;27.67;37.82
33496;BME280;19836;55.812;37.560;2022-08-25T06:27:47;100578.22;;;27.77;37.47
33496;BME280;19836;55.812;37.560;2022-08-25T06:30:17;100572.66;;;27.88;36.69
33496;BME280;19836;55.812;37.560;2022-08-25T06:32:44;100578.09;;;27.99;36.31
33496;BME280;19836;55.812;37.560;2022-08-25T06:35:13;100577.28;;;28.08;36.19
33496;BME280;19836;55.812;37.560;2022-08-25T06:37:39;100568.47;;;28.14;35.99
33496;BME280;19836;55.812;37.560;2022-08-25T06:40:08;100580.28;;;28.26;35.97
33496;BME280;19836;55.812;37.560;2022-08-25T06:42:36;100572.94;;;28.36;35.74
33496;BME280;19836;55.812;37.560;2022-08-25T06:45:02;100570.53;;;28.42;35.72
33496;BME280;19836;55.812;37.560;2022-08-25T06:47:29;100570.53;;;28.42;35.71
33496;BME280;19836;55.812;37.560;2022-08-25T06:49:55;100564.44;;;28.48;35.21
33496;BME280;19836;55.812;37.560;2022-08-25T06:52:21;100563.88;;;28.54;34.62
33496;BME280;19836;55.812;37.560;2022-08-25T06:54:46;100559.84;;;28.58;34.41
33496;BME280;19836;55.812;37.560;2022-08-25T06:57:13;100563.38;;;28.70;34.72
33496;BME280;19836;55.812;37.560;2022-08-25T06:59:39;100557.28;;;28.76;34.93
33496;BME280;19836;55.812;37.560;2022-08-25T07:02:05;100562.38;;;28.80;34.71
33496;BME280;19836;55.812;37.560;2022-08-25T07:04:33;100563.13;;;28.92;34.61
33496;BME280;19836;55.812;37.560;2022-08-25T07:06:59;100561.16;;;29.03;34.38
33496;BME280;19836;55.812;37.560;2022-08-25T07:09:25;100558.53;;;29.11;34.08
33496;BME280;19836;55.812;37.560;2022-08-25T07:11:53;100557.38;;;29.14;33.96
33496;BME280;19836;55.812;37.560;2022-08-25T07:14:19;100554.91;;;29.20;33.97
33496;BME280;19836;55.812;37.560;2022-08-25T07:16:46;100553.34;;;29.27;33.42
33496;BME280;19836;55.812;37.560;2022-08-25T07:19:13;100557.25;;;29.34;32.92
33496;BME280;19836;55.812;37.560;2022-08-25T07:21:40;100549.97;;;29.43;32.87
33496;BME280;19836;55.812;37.560;2022-08-25T07:24:10;100549.97;;;29.52;32.97
33496;BME280;19836;55.812;37.560;2022-08-25T07:26:38;100541.41;;;29.55;32.92
33496;BME280;19836;55.812;37.560;2022-08-25T07:29:20;100549.84;;;29.63;32.70
33496;BME280;19836;55.812;37.560;2022-08-25T07:31:47;100539.81;;;29.72;32.59
33496;BME280;19836;55.812;37.560;2022-08-25T07:34:13;100548.06;;;29.81;32.48
33496;BME280;19836;55.812;37.560;2022-08-25T07:36:57;100541.97;;;29.87;32.35
33496;BME280;19836;55.812;37.560;2022-08-25T07:39:24;100547.75;;;29.94;31.56
33496;BME280;19836;55.812;37.560;2022-08-25T07:41:51;100539.88;;;29.99;31.19
33496;BME280;19836;55.812;37.560;2022-08-25T07:44:18;100536.69;;;30.03;30.96
33496;BME280;19836;55.812;37.560;2022-08-25T07:46:44;100536.06;;;30.09;30.99
33496;BME280;19836;55.812;37.560;2022-08-25T07:49:10;100545.66;;;30.24;30.81
33496;BME280;19836;55.812;37.560;2022-08-25T07:51:36;100536.75;;;30.30;30.21
33496;BME280;19836;55.812;37.560;2022-08-25T07:54:04;100540.97;;;30.34;30.32
33496;BME280;19836;55.812;37.560;2022-08-25T07:56:30;100534.09;;;30.38;30.41
33496;BME280;19836;55.812;37.560;2022-08-25T07:58:56;100532.94;;;30.41;30.03
33496;BME280;19836;55.812;37.560;2022-08-25T08:01:23;100534.19;;;30.46;29.85
33496;BME280;19836;55.812;37.560;2022-08-25T08:03:49;100531.84;;;30.51;29.48
33496;BME280;19836;55.812;37.560;2022-08-25T08:06:18;100525.72;;;30.57;29.19
33496;BME280;19836;55.812;37.560;2022-08-25T08:08:45;100517.81;;;30.62;29.00
33496;BME280;19836;55.812;37.560;2022-08-25T08:11:19;100519.25;;;30.66;28.97
33496;BME280;19836;55.812;37.560;2022-08-25T08:13:46;100520.56;;;30.72;28.36
33496;BME280;19836;55.812;37.560;2022-08-25T08:16:14;100517.00;;;30.79;28.43
33496;BME280;19836;55.812;37.560;2022-08-25T08:18:42;100509.09;;;30.84;28.54
33496;BME280;19836;55.812;37.560;2022-08-25T08:21:22;100514.41;;;30.95;28.45
33496;BME280;19836;55.812;37.560;2022-08-25T08:23:49;100514.81;;;31.00;27.87
33496;BME280;19836;55.812;37.560;2022-08-25T08:26:16;100502.69;;;31.01;28.05
33496;BME280;19836;55.812;37.560;2022-08-25T08:28:43;100505.16;;;31.04;27.84
33496;BME280;19836;55.812;37.560;2022-08-25T08:31:10;100502.41;;;31.04;27.60
33496;BME280;19836;55.812;37.560;2022-08-25T08:33:36;100509.38;;;31.08;27.48
33496;BME280;19836;55.812;37.560;2022-08-25T08:36:08;100500.44;;;31.14;27.13
33496;BME280;19836;55.812;37.560;2022-08-25T08:38:36;100502.84;;;31.17;26.32
33496;BME280;19836;55.812;37.560;2022-08-25T08:41:16;100486.66;;;31.23;26.36
33496;BME280;19836;55.812;37.560;2022-08-25T08:52:43;100490.44;;;31.39;26.17
33496;BME280;19836;55.812;37.560;2022-08-25T08:58:02;100483.63;;;31.69;25.59
33496;BME280;19836;55.812;37.560;2022-08-25T09:00:30;100483.38;;;31.80;25.05
33496;BME280;19836;55.812;37.560;2022-08-25T09:03:04;100487.59;;;31.92;24.54
33496;BME280;19836;55.812;37.560;2022-08-25T09:05:37;100485.25;;;32.05;24.73
33496;BME280;19836;55.812;37.560;2022-08-25T09:08:11;100493.41;;;32.32;24.57
33496;BME280;19836;55.812;37.560;2022-08-25T09:31:00;100470.88;;;40.34;18.51
33496;BME280;19836;55.812;37.560;2022-08-25T09:33:28;100465.22;;;41.79;17.14
33496;BME280;19836;55.812;37.560;2022-08-25T09:35:56;100458.03;;;41.52;16.73
33496;BME280;19836;55.812;37.560;2022-08-25T09:38:23;100470.25;;;39.67;17.68
33496;BME280;19836;55.812;37.560;2022-08-25T09:40:53;100458.50;;;39.18;17.45
33496;BME280;19836;55.812;37.560;2022-08-25T09:43:20;100465.09;;;40.03;17.65
33496;BME280;19836;55.812;37.560;2022-08-25T09:45:49;100459.00;;;40.12;17.11
33496;BME280;19836;55.812;37.560;2022-08-25T09:48:27;100463.66;;;40.70;16.71
33496;BME280;19836;55.812;37.560;2022-08-25T09:50:58;100461.59;;;39.42;17.11
33496;BME280;19836;55.812;37.560;2022-08-25T09:53:26;100451.25;;;40.08;16.67
33496;BME280;19836;55.812;37.560;2022-08-25T09:56:00;100445.88;;;39.87;16.77
33496;BME280;19836;55.812;37.560;2022-08-25T09:58:29;100451.69;;;40.24;16.76
33496;BME280;19836;55.812;37.560;2022-08-25T10:01:14;100438.81;;;41.11;15.95
33496;BME280;19836;55.812;37.560;2022-08-25T10:04:01;100451.66;;;41.32;15.74
33496;BME280;19836;55.812;37.560;2022-08-25T10:06:33;100449.88;;;42.78;14.96
33496;BME280;19836;55.812;37.560;2022-08-25T10:09:06;100446.91;;;44.14;14.28
33496;BME280;19836;55.812;37.560;2022-08-25T10:11:40;100445.84;;;45.17;13.27
33496;BME280;19836;55.812;37.560;2022-08-25T10:16:45;100445.88;;;44.43;13.08
33496;BME280;19836;55.812;37.560;2022-08-25T10:19:25;100449.97;;;44.59;12.61
33496;BME280;19836;55.812;37.560;2022-08-25T10:24:26;100433.53;;;43.57;13.26
33496;BME280;19836;55.812;37.560;2022-08-25T10:32:17;100428.31;;;44.41;13.49
33496;BME280;19836;55.812;37.560;2022-08-25T10:34:49;100430.75;;;45.12;12.94
33496;BME280;19836;55.812;37.560;2022-08-25T10:46:07;100408.09;;;45.56;12.43
33496;BME280;19836;55.812;37.560;2022-08-25T10:57:45;100413.09;;;48.07;10.89
33496;BME280;19836;55.812;37.560;2022-08-25T11:00:17;100399.94;;;47.96;10.53
33496;BME280;19836;55.812;37.560;2022-08-25T11:05:41;100393.81;;;44.16;12.07
33496;BME280;19836;55.812;37.560;2022-08-25T11:10:51;100388.00;;;42.29;13.60
33496;BME280;19836;55.812;37.560;2022-08-25T11:16:14;100372.19;;;39.07;15.91
33496;BME280;19836;55.812;37.560;2022-08-25T11:18:48;100369.06;;;37.95;16.61
33496;BME280;19836;55.812;37.560;2022-08-25T11:21:19;100368.31;;;37.25;17.35
33496;BME280;19836;55.812;37.560;2022-08-25T11:26:54;100372.19;;;41.61;15.19
33496;BME280;19836;55.812;37.560;2022-08-25T11:29:24;100361.56;;;43.48;13.79
33496;BME280;19836;55.812;37.560;2022-08-25T11:31:58;100357.56;;;44.64;13.21
33496;BME280;19836;55.812;37.560;2022-08-25T11:34:27;100362.44;;;45.69;12.28
33496;BME280;19836;55.812;37.560;2022-08-25T11:37:02;100357.97;;;46.49;11.80
33496;BME280;19836;55.812;37.560;2022-08-25T11:39:56;100359.94;;;47.13;11.61
33496;BME280;19836;55.812;37.560;2022-08-25T11:45:53;100358.09;;;47.92;10.88
33496;BME280;19836;55.812;37.560;2022-08-25T11:51:46;100348.63;;;48.79;10.17
33496;BME280;19836;55.812;37.560;2022-08-25T11:54:41;100350.88;;;48.72;10.31
33496;BME280;19836;55.812;37.560;2022-08-25T11:57:16;100356.69;;;47.94;10.64
33496;BME280;19836;55.812;37.560;2022-08-25T12:02:47;100340.78;;;47.62;10.51
33496;BME280;19836;55.812;37.560;2022-08-25T12:11:04;100336.28;;;48.02;10.19
33496;BME280;19836;55.812;37.560;2022-08-25T12:13:45;100335.06;;;48.40;10.12
33496;BME280;19836;55.812;37.560;2022-08-25T12:21:53;100333.47;;;48.59;9.98
33496;BME280;19836;55.812;37.560;2022-08-25T12:27:41;100317.84;;;46.19;11.54
33496;BME280;19836;55.812;37.560;2022-08-25T12:30:22;100310.41;;;44.70;12.08
33496;BME280;19836;55.812;37.560;2022-08-25T12:38:16;100314.72;;;39.94;15.48
33496;BME280;19836;55.812;37.560;2022-08-25T12:45:49;100298.69;;;40.07;16.26
33496;BME280;19836;55.812;37.560;2022-08-25T12:51:14;100299.19;;;43.84;13.65
33496;BME280;19836;55.812;37.560;2022-08-25T12:56:31;100296.44;;;44.12;13.32
33496;BME280;19836;55.812;37.560;2022-08-25T13:15:20;100269.88;;;38.77;16.81
33496;BME280;19836;55.812;37.560;2022-08-25T13:17:49;100274.66;;;38.89;16.99
33496;BME280;19836;55.812;37.560;2022-08-25T13:20:26;100267.31;;;38.95;17.14
33496;BME280;19836;55.812;37.560;2022-08-25T13:22:56;100265.94;;;38.45;17.78
33496;BME280;19836;55.812;37.560;2022-08-25T13:25:26;100260.78;;;38.49;17.74
33496;BME280;19836;55.812;37.560;2022-08-25T13:28:00;100261.53;;;40.05;16.86
33496;BME280;19836;55.812;37.560;2022-08-25T13:30:30;100260.63;;;41.42;15.70
33496;BME280;19836;55.812;37.560;2022-08-25T13:32:57;100259.00;;;42.72;14.82
33496;BME280;19836;55.812;37.560;2022-08-25T13:35:27;100265.47;;;43.02;14.53
33496;BME280;19836;55.812;37.560;2022-08-25T13:37:53;100255.97;;;42.85;14.47
33496;BME280;19836;55.812;37.560;2022-08-25T13:40:26;100250.75;;;42.41;14.55
33496;BME280;19836;55.812;37.560;2022-08-25T13:42:58;100262.00;;;42.11;15.12
33496;BME280;19836;55.812;37.560;2022-08-25T13:45:28;100255.78;;;41.49;15.36
33496;BME280;19836;55.812;37.560;2022-08-25T13:47:54;100254.03;;;41.05;15.55
33496;BME280;19836;55.812;37.560;2022-08-25T13:58:04;100239.34;;;37.68;17.89
33496;BME280;19836;55.812;37.560;2022-08-25T14:00:40;100234.78;;;36.78;18.70
33496;BME280;19836;55.812;37.560;2022-08-25T14:03:28;100231.09;;;36.36;19.32
33496;BME280;19836;55.812;37.560;2022-08-25T14:06:17;100232.25;;;36.06;19.79
33496;BME280;19836;55.812;37.560;2022-08-25T14:08:46;100228.06;;;35.81;19.53
33496;BME280;19836;55.812;37.560;2022-08-25T14:14:10;100222.88;;;35.63;20.43
33496;BME280;19836;55.812;37.560;2022-08-25T14:16:47;100226.63;;;35.56;20.32
33496;BME280;19836;55.812;37.560;2022-08-25T14:19:16;100218.84;;;35.37;20.69
33496;BME280;19836;55.812;37.560;2022-08-25T14:21:43;100222.13;;;35.26;21.05
33496;BME280;19836;55.812;37.560;2022-08-25T14:24:14;100218.03;;;35.14;21.36
33496;BME280;19836;55.812;37.560;2022-08-25T14:26:40;100218.59;;;34.95;21.23
33496;BME280;19836;55.812;37.560;2022-08-25T14:29:06;100217.03;;;34.78;21.41
33496;BME280;19836;55.812;37.560;2022-08-25T14:31:35;100218.09;;;34.69;21.42
33496;BME280;19836;55.812;37.560;2022-08-25T14:34:07;100215.13;;;34.56;21.76
33496;BME280;19836;55.812;37.560;2022-08-25T14:36:34;100210.72;;;34.39;22.21
33496;BME280;19836;55.812;37.560;2022-08-25T14:39:01;100210.34;;;34.19;22.49
33496;BME280;19836;55.812;37.560;2022-08-25T14:41:35;100210.19;;;34.13;22.50
33496;BME280;19836;55.812;37.560;2022-08-25T14:44:03;100212.19;;;34.04;22.32
33496;BME280;19836;55.812;37.560;2022-08-25T14:46:33;100199.69;;;34.00;22.24
33496;BME280;19836;55.812;37.560;2022-08-25T14:49:02;100207.88;;;33.94;22.56
33496;BME280;19836;55.812;37.560;2022-08-25T14:51:29;100192.63;;;33.90;22.62
33496;BME280;19836;55.812;37.560;2022-08-25T14:54:03;100198.06;;;33.83;22.51
33496;BME280;19836;55.812;37.560;2022-08-25T14:56:30;100198.06;;;33.75;22.52
33496;BME280;19836;55.812;37.560;2022-08-25T14:58:56;100201.56;;;33.69;22.81
33496;BME280;19836;55.812;37.560;2022-08-25T15:01:23;100194.16;;;33.62;22.65
33496;BME280;19836;55.812;37.560;2022-08-25T15:03:51;100196.59;;;33.57;22.94
33496;BME280;19836;55.812;37.560;2022-08-25T15:06:18;100186.56;;;33.48;22.99
33496;BME280;19836;55.812;37.560;2022-08-25T15:08:44;100178.97;;;33.34;23.18
33496;BME280;19836;55.812;37.560;2022-08-25T15:11:30;100188.91;;;33.20;23.45
33496;BME280;19836;55.812;37.560;2022-08-25T15:13:57;100186.69;;;33.16;23.56
33496;BME280;19836;55.812;37.560;2022-08-25T15:16:32;100183.75;;;33.09;23.67